Squad war stats
Faction Empire
Rank 31
TrueSkill™ 29,722
Reputation 18,399
Wars 210
Wins 164
Draws 28
Losses 18
Uplinks captured 9,133
Uplinks saved 4,398
Last updated 3 minutes ago
Mu 29.788
Sigma 0.019
Last War today
Current War Force_Unleashed
Battle history
Date Opp. skill Opponent Result Score Opp. score Skill result Skill before Mu before Sigma before
2019-01-20 90% Calgarykickers WIN 45 7 0 29722 29.788 0.019
2019-01-18 100% Fire_and_Ice WIN 45 44 +1 29721 29.788 0.019
2019-01-16 52% Marauders-Sierra WIN 45 39 0 29721 29.788 0.019
2019-01-13 80% Ticos_Team WIN 45 5 0 29721 29.788 0.019
2019-01-11 97% BarefootPhoenix DRAW 45 45 0 29721 29.788 0.019
2019-01-08 100% Spanish_Rebels_2 WIN 45 43 +6 29715 29.782 0.019
2019-01-06 94% POLSKA--WIN-905 WIN 45 44 0 29715 29.782 0.019
2019-01-04 95% Rey's_Raiders WIN 45 28 0 29715 29.782 0.019
2019-01-02 93% Outlaw1234 WIN 45 13 0 29715 29.782 0.019
2018-12-30 92% Skull-Corp WIN 45 5 0 29715 29.782 0.019
2018-12-28 95% SpaceBarons WIN 45 41 0 29715 29.782 0.019
2018-12-26 95% TheForce'sHand WIN 45 1 0 29715 29.782 0.019
2018-12-23 94% Razors WIN 45 5 0 29715 29.782 0.019
2018-12-20 95% 5fingerdeathpnch WIN 45 0 0 29715 29.782 0.019
2018-12-17 85% HUN_Team WIN 45 5 0 29715 29.782 0.019
2018-12-15 95% Elite_Jedi_Crew WIN 45 41 0 29715 29.782 0.019
2018-12-13 95% ResistenciaESP WIN 45 1 0 29715 29.782 0.019
2018-12-04 96% Italia-HanSolo2 DRAW 45 45 0 29715 29.782 0.019
2018-12-02 90% 01Roguesquadron WIN 44 9 0 29715 29.782 0.019
2018-11-29 100% PartylikePorkins DRAW 45 45 0 29715 29.782 0.019
2018-11-21 95% S.H.I.E.L.D.rage WIN 45 0 0 29715 29.782 0.019
2018-11-19 92% FrenchAlliance WIN 45 5 0 29715 29.782 0.019
2018-11-17 93% DEUTSCH DRAW 45 45 0 29715 29.782 0.019
2018-11-13 98% Deutsche-Falken DRAW 45 45 0 29715 29.782 0.019
2018-11-09 92% PhoenixAwkns_Aca WIN 41 14 0 29715 29.782 0.019
2018-11-06 93% Italia-HanSolo3 WIN 45 42 0 29715 29.782 0.019
2018-11-04 98% PartyLikeLando DRAW 45 45 0 29715 29.782 0.019
2018-11-02 95% Solo'sRenagades WIN 45 1 0 29715 29.782 0.019
2018-10-31 96% RogueEwokReturn WIN 41 23 0 29715 29.782 0.019
2018-10-29 93% Italian-Rebelz WIN 45 6 0 29715 29.782 0.019
2018-10-24 96% windows-revenge WIN 43 13 0 29715 29.782 0.019
2018-10-22 99% TeamGibson DRAW 45 45 0 29715 29.782 0.019
2018-10-20 96% GUARDIANSOFTHE WIN 45 38 0 29715 29.782 0.019
2018-10-17 97% DejavuChaos DRAW 45 45 0 29715 29.782 0.019
2018-10-14 95% Peacemakers59 WIN 45 0 0 29715 29.782 0.019
2018-10-12 96% Italian212th WIN 45 38 +1 29714 29.781 0.019
2018-10-08 78% Germany's-force2 WIN 45 13 0 29714 29.781 0.019
2018-10-05 95% Italian-Rebelz WIN 45 35 0 29714 29.781 0.019
2018-10-02 85% Austria.ATrupp WIN 45 11 0 29714 29.781 0.019
2018-09-29 94% Greek_Spirit WIN 44 33 0 29714 29.781 0.019
2018-09-26 94% MyRebelBrothers WIN 45 6 0 29714 29.781 0.019
2018-09-21 99% JediTempleBlue DRAW 45 45 0 29714 29.781 0.019
2018-09-18 97% et.tu.Brute WIN 45 39 0 29714 29.781 0.019
2018-09-14 95% Rogues-One WIN 45 32 0 29714 29.781 0.019
2018-09-10 95% Ukrainian_Boys WIN 43 8 0 29714 29.781 0.019
2018-09-06 98% BarefootPhoenix DRAW 45 45 0 29714 29.781 0.019
2018-09-04 95% ozzydog WIN 45 23 0 29714 29.781 0.019
2018-09-02 94% Elite_Jedi_Crew DRAW 45 45 0 29714 29.781 0.019
2018-08-30 92% Deutsch+Jedi WIN 45 2 0 29714 29.781 0.019
2018-08-27 95% Apocalypse-Now WIN 45 8 0 29714 29.781 0.019
2018-08-25 96% DejaVuMadness WIN 45 7 0 29714 29.781 0.019
2018-08-20 89% Galactictyphoon WIN 45 44 0 29714 29.781 0.019
2018-08-17 94% Rock_Brigade WIN 45 39 0 29714 29.781 0.019
2018-08-14 91% RUS(RED-ARMY) WIN 44 9 0 29714 29.781 0.019
2018-08-12 95% Ryan'sRaiders WIN 45 24 0 29714 29.781 0.019
2018-08-09 100% Yoda'sMafia WIN 45 21 +13 29701 29.777 0.022
2018-08-06 96% GUARDIANSOFTHE WIN 42 28 0 29701 29.777 0.022
2018-08-03 90% Deutsche-Falken2 WIN 45 39 0 29701 29.777 0.022
2018-07-31 91% Rebelles_Gaulois WIN 45 40 0 29701 29.777 0.022
2018-07-29 99% RUS-ВИТЯЗИacadem WIN 45 40 0 29701 29.777 0.022
2018-07-27 79% BELGES WIN 45 0 0 29701 29.777 0.022
2018-07-23 79% ITALIANI WIN 44 40 0 29701 29.776 0.022
2018-07-19 96% Ukrainian_Boys WIN 45 17 0 29701 29.776 0.022
2018-07-17 100% Hungary_Squad DRAW 45 45 0 29701 29.776 0.022
2018-07-14 91% DejavuPortal WIN 45 9 0 29701 29.776 0.022
2018-07-08 95% Rogue_Elite_2 WIN 45 8 0 29701 29.776 0.022
2018-07-05 91% 01Roguesquadron WIN 44 8 0 29701 29.776 0.022
2018-07-02 94% Indeland...Jedis DRAW 45 45 0 29701 29.776 0.022
2018-06-28 90% France-Dagobah-2 WIN 45 33 0 29701 29.776 0.022
2018-06-23 95% Françaisrebelle WIN 45 3 0 29701 29.776 0.022
2018-06-19 94% FrancEvolution1 WIN 34 17 +1 29700 29.776 0.022
2018-06-16 95% Jedi-Warship WIN 45 2 0 29700 29.776 0.022
2018-06-13 98% РУССКИЕ_ВМЕСТЕ DRAW 45 45 0 29700 29.776 0.022
2018-06-07 96% Die.Macht WIN 45 5 0 29700 29.776 0.022
2018-06-02 94% Yoda's_Lounge WIN 45 2 0 29700 29.776 0.022
2018-05-30 102% Yoda'sMafia WIN 45 30 +533 29167 29.408 0.069
2018-05-27 98% Yoda's-Rebellion WIN 45 24 0 29167 29.408 0.069
2018-05-21 101% DejavuLegion LOSS 30 34 -32 29199 29.939 0.211
2018-05-15 96% jedishispanos WIN 45 23 0 29199 29.939 0.211
2018-05-13 97% GermaN WIN 45 5 0 29199 29.939 0.211
2018-05-06 97% Wookie-Clan WIN 45 16 0 29199 29.939 0.211
2018-05-04 98% HamburgAlliance2 LOSS 40 41 -4 29203 29.965 0.218
2018-04-28 68% alpha-chaos WIN 42 3 +1 29202 29.964 0.218
2018-04-25 87% espana015 WIN 45 1 0 29202 29.964 0.218
2018-04-19 96% French_kiss WIN 45 23 +80 29122 29.922 0.229
2018-04-12 102% Jedi-Jawas LOSS 35 45 0 29612 29.922 0.089
2018-04-08 96% havoc_mafia DRAW 45 45 0 29612 29.922 0.089
2018-04-06 98% РУССКИЕ_ВМЕСТЕ WIN 42 41 0 29612 29.922 0.089
2018-04-03 96% Active_Group WIN 45 3 0 29612 29.922 0.089
2018-03-30 97% JeDi WIN 33 23 0 29612 29.922 0.089
2018-03-27 98% KingWalkers WIN 45 14 0 29612 29.922 0.089
2018-03-22 96% Montreal-514 WIN 45 11 0 29612 29.922 0.089
2018-03-16 96% French_kiss WIN 40 17 +24 29588 29.903 0.090
2018-03-13 97% RUS-ВИТЯЗИacadem WIN 45 30 0 29588 29.903 0.090
2018-03-08 99% RUS•JEDI LOSS 43 44 -78 29666 30.089 0.121
2018-03-02 103% _NAMELESS_ DRAW 45 45 0 29666 30.089 0.121
2018-02-26 97% Jedi-Master's LOSS 32 41 -2 29668 30.092 0.121
2018-02-22 100% ULTRAS-Reborn WIN 45 40 +147 29521 30.040 0.148
2018-02-16 88% Rebellion2016 WIN 45 41 0 29521 30.040 0.148
2018-02-12 100% Greek_Spirit WIN 45 10 +15 29506 30.038 0.152
2018-02-06 93% PoRtuGaL WIN 45 6 0 29506 30.038 0.152
2018-02-02 96% Galaxywolves LOSS 40 42 -21 29527 30.075 0.157
2018-01-29 87% Rebel3Squad WIN 44 37 +13 29514 30.065 0.158
2018-01-24 97% SlayingTroopers WIN 45 12 0 29514 30.065 0.158
2018-01-18 98% 01Roguesquadron WIN 45 6 0 29514 30.065 0.158
2018-01-13 97% motörhead4life WIN 45 35 0 29514 30.065 0.158
2018-01-09 96% DejavuRazers WIN 45 4 0 29514 30.065 0.158
2018-01-05 97% Union-Of-Freedom WIN 45 0 0 29514 30.065 0.158
2017-12-31 101% Elite-Chaos DRAW 45 45 0 29514 30.065 0.158
2017-12-28 99% BarefootPhoenix WIN 45 44 0 29514 30.065 0.158
2017-12-23 97% Die.Macht WIN 45 0 0 29514 30.065 0.158
2017-12-19 99% Deutsch'15 WIN 45 21 0 29514 30.065 0.158
2017-12-14 102% Jedi-Jawas DRAW 45 45 0 29514 30.065 0.158
2017-12-12 99% Yoda's-Rebellion WIN 45 13 +1 29513 30.065 0.158
2017-12-07 101% havoc_agents WIN 43 28 +341 29172 29.894 0.206
2017-12-04 100% Donate-n-Strike LOSS 39 41 +9 29163 30.150 0.282
2017-12-01 94% Catalunya50 WIN 45 13 +9 29154 30.147 0.284
2017-11-28 99% Rebelles_france1 DRAW 45 45 0 29154 30.147 0.284
2017-11-26 99% 01Roguesquadron WIN 44 14 0 29154 30.147 0.284
2017-11-18 97% RUS(RED-ARMY) WIN 33 21 0 29644 30.147 0.144
2017-11-14 98% A.Motley.Crew WIN 45 4 0 29644 30.147 0.144
2017-11-10 101% MiserySquad1E WIN 45 18 +260 29384 30.061 0.193
2017-11-06 97% Deutsch'15 WIN 45 20 +18 29366 30.055 0.197
2017-11-02 96% Deutsch'15 WIN 45 40 +20 29346 30.048 0.201
2017-10-27 97% BuLgaria WIN 45 6 0 29346 30.048 0.201
2017-10-25 99% JEDI-WATCHMEN WIN 45 30 +5 29341 30.047 0.202
2017-10-20 98% Teamz12345678 WIN 45 4 0 29341 30.047 0.202
2017-10-17 100% skyWalker WIN 45 0 +29 29312 30.041 0.208
2017-10-12 99% BattleRaxDestroy DRAW 45 45 0 29312 30.041 0.208
2017-10-09 95% German's-Alli.2 WIN 45 8 +68 29244 29.997 0.215
2017-10-06 99% CamoDaisies WIN 45 16 0 29244 29.997 0.215
2017-10-03 100% Donate-or-leave2 WIN 35 21 +23 29221 29.993 0.221
2017-10-01 97% Ewoks_revenge WIN 45 5 +1 29220 29.993 0.221
2017-09-07 98% DieAltenHaudegen WIN 41 6 0 29220 29.993 0.221
2017-09-02 100% Magyar-Team-SM WIN 43 17 +109 29111 29.965 0.244
2017-08-30 101% РУССКИЕ_ВМЕСТЕ WIN 42 36 +412 28699 29.769 0.306
2017-08-25 105% Deutsche-Falken DRAW 45 45 0 28699 29.769 0.306
2017-08-16 93% BattleRaxBrigade WIN 45 5 +4 29255 29.767 0.146
2017-08-14 97% PartylikeAckbar WIN 43 29 +72 29183 29.713 0.151
2017-08-09 97% German|Rebels WIN 45 7 +73 29110 29.663 0.158
2017-08-06 99% Magyar-Team-SM WIN 45 43 +149 28961 29.591 0.180
2017-07-31 99% BlackWing][Elite WIN 43 6 +48 28913 29.577 0.190
2017-07-26 100% RUSREBEL WIN 45 44 +308 28605 29.433 0.237
2017-07-20 98% German's-Alli.2 LOSS 40 41 -389 28994 30.372 0.394
2017-07-13 100% Marauders-Alpha LOSS 37 40 +21 28973 30.464 0.426
2017-07-07 97% Catalunya50 WIN 45 2 +69 28939 30.446 0.431
2017-07-04 101% Clone_Killers WIN 45 24 +480 28564 30.268 0.487
2017-07-01 96% Killer'_Squad WIN 45 0 +19 28650 30.264 0.461
2017-06-26 93% Ace13 WIN 45 3 +5 28785 30.263 0.422
2017-06-24 93% RebelRepublicans WIN 45 1 +4 28851 30.262 0.403
2017-06-19 99% French_kiss WIN 45 37 +258 28803 30.167 0.390
2017-06-14 98% German|Reb|ü30 WIN 45 31 +203 28775 30.086 0.375
2017-06-11 100% Havoc_Recon DRAW 45 45 0 28880 30.086 0.345
2017-06-06 100% SkywalkersPride WIN 45 30 +408 28647 29.921 0.364
2017-05-28 98% Magyar-Team-SM WIN 45 4 +56 28906 29.905 0.285
2017-05-22 98% FrancEvolution1 DRAW 45 45 0 29151 29.905 0.215
2017-05-18 99% BarefootPhoenix WIN 45 37 +150 29141 29.846 0.202
2017-05-14 94% Max_Rebo's_Band WIN 45 4 +1 29245 29.846 0.172
2017-05-11 100% Clone_Killers WIN 45 31 +250 29100 29.722 0.178
2017-05-08 107% W.A.R.Heroes DRAW 45 45 0 29240 29.722 0.138
2017-05-05 100% French_kiss WIN 45 41 +177 29098 29.631 0.152
2017-05-02 99% RedSquadron383 WIN 45 27 +30 29208 29.622 0.118
2017-04-28 97% ROMANIA WIN 45 2 +1 29347 29.622 0.078
2017-04-24 98% Christ_Like WIN 45 0 0 29522 29.622 0.028
2017-04-20 101% JeDi WIN 41 20 +130 29480 29.502 0.006
2017-04-16 99% Yoda's-Rebellion WIN 40 20 0 29480 29.502 0.006
2017-04-10 98% English-Elite WIN 42 12 0 29480 29.502 0.006
2017-04-07 101% Blackwingrebels DRAW 45 45 0 29480 29.502 0.006
2017-03-31 98% BRASIL WIN 45 0 0 29480 29.502 0.006
2017-03-23 79% Germany's-force2 DRAW 45 45 0 29480 29.502 0.006
2017-03-19 105% Havocs_RuffNecks LOSS 35 38 0 29480 29.502 0.006
2017-03-15 97% FrancEvolution2 WIN 41 23 0 29480 29.501 0.006
2017-03-07 99% Donate-Active WIN 45 7 0 29480 29.501 0.006
2017-03-04 100% roguesofalderaan WIN 45 0 +10 29470 29.497 0.008
2017-02-27 99% StingrayCo WIN 42 2 0 29470 29.497 0.008
2017-02-19 102% Jedi-warriors DRAW 45 45 0 29470 29.497 0.008
2017-02-14 98% RedSquadron383 LOSS 44 45 -722 30192 30.474 0.081
2017-02-11 105% RebeIIion DRAW 45 45 0 30192 30.474 0.081
2017-02-06 98% Germany's-force WIN 45 32 0 30192 30.474 0.081
2017-02-03 114% W.A.R.Jedi LOSS 32 40 0 30192 30.474 0.081
2017-01-30 103% FrancEvolution LOSS 35 45 0 30192 30.474 0.081
2017-01-27 97% FrancEvolution3 WIN 37 28 0 30192 30.474 0.081
2017-01-24 100% Deutsch(DE) WIN 45 25 +77 30115 30.444 0.094
2017-01-21 98% YAVIN8 WIN 45 36 0 30115 30.444 0.094
2017-01-18 92% Catalunya-lliure WIN 45 0 0 30115 30.444 0.094
2017-01-15 97% RedSquadron383 WIN 45 36 0 30115 30.444 0.094
2017-01-12 98% JEDI•UK WIN 45 13 0 30115 30.444 0.094
2017-01-07 101% Deutsch(DE) WIN 42 19 +368 29747 30.242 0.141
2017-01-03 90% W.A.R.Academy WIN 45 25 0 29747 30.242 0.141
2016-12-31 98% GreeceWarriors WIN 45 7 0 29747 30.242 0.141
2016-12-24 98% BigBadBadgers WIN 40 27 0 29747 30.242 0.141
2016-12-19 102% Force-awakens WIN 45 14 +385 29362 30.102 0.211
2016-12-15 100% Alliance_HQ WIN 43 15 +7 29355 30.101 0.213
2016-12-08 98% France-rebelle WIN 45 9 0 29355 30.101 0.213
2016-12-05 100% Germany's-force WIN 39 38 +25 29330 30.096 0.219
2016-12-02 101% SkywalkersPride WIN 42 41 +167 29163 30.050 0.253
2016-11-29 103% BarefootPhoenix LOSS 32 34 +162 29001 30.859 0.531
2016-11-24 108% RebeIIion LOSS 34 42 +1 29000 30.859 0.531
2016-11-21 101% Division.francai WIN 40 36 +87 28913 30.841 0.551
2016-11-18 96% Rebel)(Masters WIN 41 28 0 28913 30.841 0.551
2016-11-13 100% New-Omega-Chaos WIN 45 10 +13 28900 30.839 0.554
2016-11-09 99% UkrJedis WIN 43 1 +2 28898 30.839 0.555
2016-11-02 103% Jedi'Jawas WIN 45 31 +210 28688 30.791 0.601
2016-10-28 64% FranceMaitreJedi WIN 40 34 0 28688 30.791 0.601
2016-10-23 93% Sharethelove WIN 45 11 0 28688 30.791 0.601
2016-10-19 108% Wolf-Battalion LOSS 34 45 +65 28623 30.823 0.629
2016-10-17 134% Phoenixrise WIN 45 16 +6,682 21941 27.511 1.591
2016-10-14 136% DEUTSCH(^_^) LOSS 37 40 +310 21631 27.641 1.717
2016-10-10 138% Francais:-) LOSS 34 36 +1,105 20526 35.168 4.183
2016-10-06 2940200% Ultimate-Rebels WIN 40 38 +20,526 0 25.000 8.333
*Note: Wars from before June 22nd 2016 are not included.